sensor_id;sensor_type;location;lat;lon;timestamp;temperature;humidity
59162;DHT22;44942;48.936;8.260;2023-05-29T00:01:50;24.60;44.20
59162;DHT22;44942;48.936;8.260;2023-05-29T00:06:51;24.60;44.20
59162;DHT22;44942;48.936;8.260;2023-05-29T00:11:52;24.60;44.20
59162;DHT22;44942;48.936;8.260;2023-05-29T00:16:53;24.60;44.20
59162;DHT22;44942;48.936;8.260;2023-05-29T00:21:53;24.50;44.10
59162;DHT22;44942;48.936;8.260;2023-05-29T00:26:54;24.50;44.10
59162;DHT22;44942;48.936;8.260;2023-05-29T00:31:55;24.50;44.00
59162;DHT22;44942;48.936;8.260;2023-05-29T00:36:56;24.50;44.00
59162;DHT22;44942;48.936;8.260;2023-05-29T00:41:57;24.50;44.00
59162;DHT22;44942;48.936;8.260;2023-05-29T00:46:58;24.50;44.10
59162;DHT22;44942;48.936;8.260;2023-05-29T00:51:59;24.50;44.00
59162;DHT22;44942;48.936;8.260;2023-05-29T00:57:01;24.50;43.90
59162;DHT22;44942;48.936;8.260;2023-05-29T01:02:03;24.50;43.90
59162;DHT22;44942;48.936;8.260;2023-05-29T01:07:04;24.50;43.90
59162;DHT22;44942;48.936;8.260;2023-05-29T01:17:55;24.40;43.70
59162;DHT22;44942;48.936;8.260;2023-05-29T01:23:34;24.40;43.70
59162;DHT22;44942;48.936;8.260;2023-05-29T01:28:41;24.40;43.70
59162;DHT22;44942;48.936;8.260;2023-05-29T01:33:46;24.40;43.70
59162;DHT22;44942;48.936;8.260;2023-05-29T01:38:53;24.40;43.80
59162;DHT22;44942;48.936;8.260;2023-05-29T01:43:55;24.40;43.70
59162;DHT22;44942;48.936;8.260;2023-05-29T01:48:57;24.40;43.60
59162;DHT22;44942;48.936;8.260;2023-05-29T01:53:59;24.40;43.60
59162;DHT22;44942;48.936;8.260;2023-05-29T01:59:03;24.40;43.70
59162;DHT22;44942;48.936;8.260;2023-05-29T02:04:04;24.30;43.50
59162;DHT22;44942;48.936;8.260;2023-05-29T02:09:04;24.30;43.50
59162;DHT22;44942;48.936;8.260;2023-05-29T02:14:06;24.30;43.50
59162;DHT22;44942;48.936;8.260;2023-05-29T02:19:06;24.30;43.50
59162;DHT22;44942;48.936;8.260;2023-05-29T02:24:08;24.30;43.50
59162;DHT22;44942;48.936;8.260;2023-05-29T02:29:08;24.30;43.50
59162;DHT22;44942;48.936;8.260;2023-05-29T02:34:09;24.30;43.50
59162;DHT22;44942;48.936;8.260;2023-05-29T02:39:09;24.30;43.60
59162;DHT22;44942;48.936;8.260;2023-05-29T02:44:10;24.20;43.60
59162;DHT22;44942;48.936;8.260;2023-05-29T02:49:11;24.20;43.60
59162;DHT22;44942;48.936;8.260;2023-05-29T02:54:11;24.30;43.60
59162;DHT22;44942;48.936;8.260;2023-05-29T02:59:12;24.20;43.60
59162;DHT22;44942;48.936;8.260;2023-05-29T03:04:13;24.20;43.70
59162;DHT22;44942;48.936;8.260;2023-05-29T03:09:13;24.20;43.70
59162;DHT22;44942;48.936;8.260;2023-05-29T03:14:17;24.20;43.70
59162;DHT22;44942;48.936;8.260;2023-05-29T03:19:19;24.20;43.90
59162;DHT22;44942;48.936;8.260;2023-05-29T03:24:20;24.20;43.90
59162;DHT22;44942;48.936;8.260;2023-05-29T03:29:21;24.20;43.90
59162;DHT22;44942;48.936;8.260;2023-05-29T03:34:21;24.10;43.80
59162;DHT22;44942;48.936;8.260;2023-05-29T03:39:22;24.10;43.70
59162;DHT22;44942;48.936;8.260;2023-05-29T03:44:22;24.20;43.80
59162;DHT22;44942;48.936;8.260;2023-05-29T03:49:23;24.10;43.80
59162;DHT22;44942;48.936;8.260;2023-05-29T03:54:23;24.10;43.80
59162;DHT22;44942;48.936;8.260;2023-05-29T03:59:24;24.10;43.70
59162;DHT22;44942;48.936;8.260;2023-05-29T04:04:25;24.10;43.70
59162;DHT22;44942;48.936;8.260;2023-05-29T04:09:25;24.10;43.60
59162;DHT22;44942;48.936;8.260;2023-05-29T04:14:26;24.00;43.60
59162;DHT22;44942;48.936;8.260;2023-05-29T04:19:26;24.10;43.60
59162;DHT22;44942;48.936;8.260;2023-05-29T04:24:27;24.00;43.70
59162;DHT22;44942;48.936;8.260;2023-05-29T04:29:30;24.10;43.70
59162;DHT22;44942;48.936;8.260;2023-05-29T04:34:32;24.00;43.70
59162;DHT22;44942;48.936;8.260;2023-05-29T04:39:34;24.00;43.70
59162;DHT22;44942;48.936;8.260;2023-05-29T04:44:35;24.00;43.70
59162;DHT22;44942;48.936;8.260;2023-05-29T04:49:36;24.00;43.80
59162;DHT22;44942;48.936;8.260;2023-05-29T04:54:36;24.00;43.80
59162;DHT22;44942;48.936;8.260;2023-05-29T04:59:37;24.00;43.80
59162;DHT22;44942;48.936;8.260;2023-05-29T05:04:38;24.00;44.00
59162;DHT22;44942;48.936;8.260;2023-05-29T05:09:39;24.00;43.90
59162;DHT22;44942;48.936;8.260;2023-05-29T05:14:39;24.00;44.00
59162;DHT22;44942;48.936;8.260;2023-05-29T05:19:40;24.00;44.10
59162;DHT22;44942;48.936;8.260;2023-05-29T05:24:41;24.00;44.20
59162;DHT22;44942;48.936;8.260;2023-05-29T05:29:41;24.00;44.30
59162;DHT22;44942;48.936;8.260;2023-05-29T05:34:42;24.00;44.30
59162;DHT22;44942;48.936;8.260;2023-05-29T05:39:43;24.00;44.40
59162;DHT22;44942;48.936;8.260;2023-05-29T05:44:43;24.00;44.50
59162;DHT22;44942;48.936;8.260;2023-05-29T05:49:45;23.90;44.40
59162;DHT22;44942;48.936;8.260;2023-05-29T05:54:45;24.00;44.50
59162;DHT22;44942;48.936;8.260;2023-05-29T05:59:46;24.00;44.50
59162;DHT22;44942;48.936;8.260;2023-05-29T06:04:46;23.90;44.50
59162;DHT22;44942;48.936;8.260;2023-05-29T06:09:47;24.00;44.60
59162;DHT22;44942;48.936;8.260;2023-05-29T06:14:47;23.90;44.60
59162;DHT22;44942;48.936;8.260;2023-05-29T06:19:48;24.00;44.60
59162;DHT22;44942;48.936;8.260;2023-05-29T06:24:48;24.00;44.60
59162;DHT22;44942;48.936;8.260;2023-05-29T06:29:49;23.90;44.50
59162;DHT22;44942;48.936;8.260;2023-05-29T06:34:50;24.00;44.60
59162;DHT22;44942;48.936;8.260;2023-05-29T06:39:50;24.00;44.60
59162;DHT22;44942;48.936;8.260;2023-05-29T06:44:51;24.00;44.70
59162;DHT22;44942;48.936;8.260;2023-05-29T06:49:51;24.00;44.60
59162;DHT22;44942;48.936;8.260;2023-05-29T06:54:52;24.00;44.60
59162;DHT22;44942;48.936;8.260;2023-05-29T06:59:54;24.00;44.60
59162;DHT22;44942;48.936;8.260;2023-05-29T07:04:55;24.00;44.60
59162;DHT22;44942;48.936;8.260;2023-05-29T07:09:56;24.00;44.50
59162;DHT22;44942;48.936;8.260;2023-05-29T07:14:56;24.10;44.60
59162;DHT22;44942;48.936;8.260;2023-05-29T07:19:57;24.00;44.70
59162;DHT22;44942;48.936;8.260;2023-05-29T07:24:58;24.10;44.50
59162;DHT22;44942;48.936;8.260;2023-05-29T07:29:58;24.10;44.40
59162;DHT22;44942;48.936;8.260;2023-05-29T07:34:59;24.10;44.40
59162;DHT22;44942;48.936;8.260;2023-05-29T07:39:59;24.10;44.30
59162;DHT22;44942;48.936;8.260;2023-05-29T07:45:00;24.10;44.40
59162;DHT22;44942;48.936;8.260;2023-05-29T07:50:00;24.10;44.50
59162;DHT22;44942;48.936;8.260;2023-05-29T07:55:01;24.20;44.50
59162;DHT22;44942;48.936;8.260;2023-05-29T08:00:02;24.10;44.50
59162;DHT22;44942;48.936;8.260;2023-05-29T08:05:08;24.20;44.60
59162;DHT22;44942;48.936;8.260;2023-05-29T08:10:09;24.20;44.70
59162;DHT22;44942;48.936;8.260;2023-05-29T08:15:10;24.20;44.60
59162;DHT22;44942;48.936;8.260;2023-05-29T08:20:11;24.20;44.50
59162;DHT22;44942;48.936;8.260;2023-05-29T08:25:11;24.20;44.20
59162;DHT22;44942;48.936;8.260;2023-05-29T08:30:13;24.20;44.70
59162;DHT22;44942;48.936;8.260;2023-05-29T08:35:13;24.10;43.90
59162;DHT22;44942;48.936;8.260;2023-05-29T08:40:14;24.20;43.80
59162;DHT22;44942;48.936;8.260;2023-05-29T08:45:16;24.10;43.70
59162;DHT22;44942;48.936;8.260;2023-05-29T08:50:20;24.10;43.80
59162;DHT22;44942;48.936;8.260;2023-05-29T08:55:21;24.20;43.70
59162;DHT22;44942;48.936;8.260;2023-05-29T09:00:23;24.20;43.60
59162;DHT22;44942;48.936;8.260;2023-05-29T09:05:28;24.20;43.70
59162;DHT22;44942;48.936;8.260;2023-05-29T09:10:29;24.30;43.80
59162;DHT22;44942;48.936;8.260;2023-05-29T09:15:31;24.30;43.90
59162;DHT22;44942;48.936;8.260;2023-05-29T09:20:32;24.30;43.90
59162;DHT22;44942;48.936;8.260;2023-05-29T09:25:35;24.40;43.80
59162;DHT22;44942;48.936;8.260;2023-05-29T09:30:40;24.40;44.50
59162;DHT22;44942;48.936;8.260;2023-05-29T09:40:42;24.40;44.10
59162;DHT22;44942;48.936;8.260;2023-05-29T09:51:40;24.40;44.10
59162;DHT22;44942;48.936;8.260;2023-05-29T09:56:45;24.50;44.30
59162;DHT22;44942;48.936;8.260;2023-05-29T10:01:46;24.50;44.40
59162;DHT22;44942;48.936;8.260;2023-05-29T10:06:46;24.50;44.50
59162;DHT22;44942;48.936;8.260;2023-05-29T10:11:49;24.50;44.50
59162;DHT22;44942;48.936;8.260;2023-05-29T10:16:50;24.50;44.50
59162;DHT22;44942;48.936;8.260;2023-05-29T10:21:53;24.60;44.50
59162;DHT22;44942;48.936;8.260;2023-05-29T10:26:57;24.60;44.40
59162;DHT22;44942;48.936;8.260;2023-05-29T10:32:12;24.60;44.40
59162;DHT22;44942;48.936;8.260;2023-05-29T10:42:48;24.60;44.40
59162;DHT22;44942;48.936;8.260;2023-05-29T10:47:49;24.60;44.40
59162;DHT22;44942;48.936;8.260;2023-05-29T10:52:50;24.60;44.30
59162;DHT22;44942;48.936;8.260;2023-05-29T10:57:50;24.60;44.10
59162;DHT22;44942;48.936;8.260;2023-05-29T11:02:52;24.60;43.90
59162;DHT22;44942;48.936;8.260;2023-05-29T11:07:57;24.60;43.80
59162;DHT22;44942;48.936;8.260;2023-05-29T11:12:58;24.70;43.80
59162;DHT22;44942;48.936;8.260;2023-05-29T11:18:09;24.70;43.70
59162;DHT22;44942;48.936;8.260;2023-05-29T11:23:16;24.70;43.50
59162;DHT22;44942;48.936;8.260;2023-05-29T11:28:17;24.70;44.20
59162;DHT22;44942;48.936;8.260;2023-05-29T11:33:26;24.70;43.60
59162;DHT22;44942;48.936;8.260;2023-05-29T11:38:28;24.70;43.40
59162;DHT22;44942;48.936;8.260;2023-05-29T11:43:29;24.70;43.20
59162;DHT22;44942;48.936;8.260;2023-05-29T11:48:29;24.80;43.60
59162;DHT22;44942;48.936;8.260;2023-05-29T11:53:30;24.80;42.60
59162;DHT22;44942;48.936;8.260;2023-05-29T11:58:30;24.80;42.50
59162;DHT22;44942;48.936;8.260;2023-05-29T12:03:41;24.80;42.30
59162;DHT22;44942;48.936;8.260;2023-05-29T12:08:41;24.90;42.30
59162;DHT22;44942;48.936;8.260;2023-05-29T12:13:42;24.90;42.20
59162;DHT22;44942;48.936;8.260;2023-05-29T12:18:44;24.90;42.20
59162;DHT22;44942;48.936;8.260;2023-05-29T12:23:44;24.90;42.10
59162;DHT22;44942;48.936;8.260;2023-05-29T12:28:45;24.90;41.90
59162;DHT22;44942;48.936;8.260;2023-05-29T12:33:46;24.90;41.70
59162;DHT22;44942;48.936;8.260;2023-05-29T12:38:51;24.90;41.60
59162;DHT22;44942;48.936;8.260;2023-05-29T12:43:58;24.90;41.30
59162;DHT22;44942;48.936;8.260;2023-05-29T12:49:17;24.90;41.90
59162;DHT22;44942;48.936;8.260;2023-05-29T12:54:20;25.00;40.90
59162;DHT22;44942;48.936;8.260;2023-05-29T12:59:21;25.00;40.90
59162;DHT22;44942;48.936;8.260;2023-05-29T13:04:21;25.00;40.90
59162;DHT22;44942;48.936;8.260;2023-05-29T13:09:22;25.00;40.50
59162;DHT22;44942;48.936;8.260;2023-05-29T14:27:39;23.40;41.80
59162;DHT22;44942;48.936;8.260;2023-05-29T14:32:39;24.90;41.10
59162;DHT22;44942;48.936;8.260;2023-05-29T14:37:42;25.10;40.40
59162;DHT22;44942;48.936;8.260;2023-05-29T14:42:42;25.20;40.00
59162;DHT22;44942;48.936;8.260;2023-05-29T14:47:43;25.30;39.90
59162;DHT22;44942;48.936;8.260;2023-05-29T14:52:43;25.30;39.80
59162;DHT22;44942;48.936;8.260;2023-05-29T14:57:44;25.40;39.70
59162;DHT22;44942;48.936;8.260;2023-05-29T15:02:45;25.40;39.20
59162;DHT22;44942;48.936;8.260;2023-05-29T15:07:45;25.50;38.90
59162;DHT22;44942;48.936;8.260;2023-05-29T15:12:46;25.60;39.00
59162;DHT22;44942;48.936;8.260;2023-05-29T15:17:46;25.60;39.10
59162;DHT22;44942;48.936;8.260;2023-05-29T15:22:51;25.60;39.00
59162;DHT22;44942;48.936;8.260;2023-05-29T15:27:52;25.60;39.00
59162;DHT22;44942;48.936;8.260;2023-05-29T15:32:52;25.70;39.00
59162;DHT22;44942;48.936;8.260;2023-05-29T15:37:53;25.70;38.90
59162;DHT22;44942;48.936;8.260;2023-05-29T15:42:54;25.70;38.80
59162;DHT22;44942;48.936;8.260;2023-05-29T15:47:54;25.80;38.90
59162;DHT22;44942;48.936;8.260;2023-05-29T15:52:55;25.80;39.00
59162;DHT22;44942;48.936;8.260;2023-05-29T15:57:55;25.80;39.10
59162;DHT22;44942;48.936;8.260;2023-05-29T16:02:56;25.80;39.10
59162;DHT22;44942;48.936;8.260;2023-05-29T16:07:57;25.90;39.20
59162;DHT22;44942;48.936;8.260;2023-05-29T16:12:57;25.90;39.20
59162;DHT22;44942;48.936;8.260;2023-05-29T16:17:58;25.90;39.20
59162;DHT22;44942;48.936;8.260;2023-05-29T16:23:01;25.90;39.20
59162;DHT22;44942;48.936;8.260;2023-05-29T16:28:03;25.90;39.20
59162;DHT22;44942;48.936;8.260;2023-05-29T16:33:05;25.90;39.40
59162;DHT22;44942;48.936;8.260;2023-05-29T16:38:06;25.90;39.30
59162;DHT22;44942;48.936;8.260;2023-05-29T16:43:06;26.00;39.30
59162;DHT22;44942;48.936;8.260;2023-05-29T16:48:08;26.00;39.30
59162;DHT22;44942;48.936;8.260;2023-05-29T16:53:09;26.00;39.30
59162;DHT22;44942;48.936;8.260;2023-05-29T16:58:09;26.00;39.20
59162;DHT22;44942;48.936;8.260;2023-05-29T17:03:10;26.00;39.20
59162;DHT22;44942;48.936;8.260;2023-05-29T17:08:11;26.00;39.20
59162;DHT22;44942;48.936;8.260;2023-05-29T17:13:12;26.10;39.20
59162;DHT22;44942;48.936;8.260;2023-05-29T17:18:12;26.10;39.20
59162;DHT22;44942;48.936;8.260;2023-05-29T17:23:13;26.10;39.20
59162;DHT22;44942;48.936;8.260;2023-05-29T17:28:16;26.10;39.30
59162;DHT22;44942;48.936;8.260;2023-05-29T17:33:17;26.10;39.30
59162;DHT22;44942;48.936;8.260;2023-05-29T17:38:17;26.10;39.30
59162;DHT22;44942;48.936;8.260;2023-05-29T17:43:18;26.00;39.20
59162;DHT22;44942;48.936;8.260;2023-05-29T17:48:19;26.10;39.40
59162;DHT22;44942;48.936;8.260;2023-05-29T17:53:20;26.00;39.30
59162;DHT22;44942;48.936;8.260;2023-05-29T17:58:21;26.00;39.30
59162;DHT22;44942;48.936;8.260;2023-05-29T18:03:21;26.00;39.30
59162;DHT22;44942;48.936;8.260;2023-05-29T18:08:22;26.00;39.30
59162;DHT22;44942;48.936;8.260;2023-05-29T18:13:23;26.00;39.30
59162;DHT22;44942;48.936;8.260;2023-05-29T18:18:23;26.00;39.30
59162;DHT22;44942;48.936;8.260;2023-05-29T18:23:24;26.00;39.20
59162;DHT22;44942;48.936;8.260;2023-05-29T18:28:24;26.00;39.20
59162;DHT22;44942;48.936;8.260;2023-05-29T18:33:25;26.00;39.30
59162;DHT22;44942;48.936;8.260;2023-05-29T18:38:25;26.00;39.20
59162;DHT22;44942;48.936;8.260;2023-05-29T18:43:26;25.90;39.20
59162;DHT22;44942;48.936;8.260;2023-05-29T18:48:27;25.90;39.20
59162;DHT22;44942;48.936;8.260;2023-05-29T18:53:27;25.90;39.20
59162;DHT22;44942;48.936;8.260;2023-05-29T18:58:28;25.90;39.30
59162;DHT22;44942;48.936;8.260;2023-05-29T19:03:28;25.90;39.30
59162;DHT22;44942;48.936;8.260;2023-05-29T19:08:29;25.90;39.40
59162;DHT22;44942;48.936;8.260;2023-05-29T19:13:30;25.90;39.50
59162;DHT22;44942;48.936;8.260;2023-05-29T19:18:32;25.90;39.50
59162;DHT22;44942;48.936;8.260;2023-05-29T19:23:33;25.90;39.50
59162;DHT22;44942;48.936;8.260;2023-05-29T19:28:34;25.90;39.50
59162;DHT22;44942;48.936;8.260;2023-05-29T19:33:35;25.80;39.40
59162;DHT22;44942;48.936;8.260;2023-05-29T19:38:35;25.80;39.40
59162;DHT22;44942;48.936;8.260;2023-05-29T19:43:36;25.80;39.40
59162;DHT22;44942;48.936;8.260;2023-05-29T19:48:37;25.80;39.50
59162;DHT22;44942;48.936;8.260;2023-05-29T19:53:37;25.80;39.60
59162;DHT22;44942;48.936;8.260;2023-05-29T19:58:40;25.80;39.60
59162;DHT22;44942;48.936;8.260;2023-05-29T20:03:41;25.80;39.50
59162;DHT22;44942;48.936;8.260;2023-05-29T20:08:42;25.80;39.60
59162;DHT22;44942;48.936;8.260;2023-05-29T20:13:42;25.80;39.80
59162;DHT22;44942;48.936;8.260;2023-05-29T20:18:44;25.80;39.90
59162;DHT22;44942;48.936;8.260;2023-05-29T20:23:45;25.80;40.00
59162;DHT22;44942;48.936;8.260;2023-05-29T20:28:45;25.80;40.10
59162;DHT22;44942;48.936;8.260;2023-05-29T20:33:46;25.80;40.20
59162;DHT22;44942;48.936;8.260;2023-05-29T20:38:47;25.80;40.30
59162;DHT22;44942;48.936;8.260;2023-05-29T20:43:47;25.80;40.40
59162;DHT22;44942;48.936;8.260;2023-05-29T20:48:51;25.80;40.40
59162;DHT22;44942;48.936;8.260;2023-05-29T20:53:51;25.80;40.50
59162;DHT22;44942;48.936;8.260;2023-05-29T20:58:52;25.80;40.60
59162;DHT22;44942;48.936;8.260;2023-05-29T21:03:53;25.80;40.60
59162;DHT22;44942;48.936;8.260;2023-05-29T21:08:54;25.80;40.80
59162;DHT22;44942;48.936;8.260;2023-05-29T21:13:55;25.80;40.90
59162;DHT22;44942;48.936;8.260;2023-05-29T21:18:55;25.80;40.90
59162;DHT22;44942;48.936;8.260;2023-05-29T21:23:56;25.80;41.00
59162;DHT22;44942;48.936;8.260;2023-05-29T21:28:57;25.80;41.00
59162;DHT22;44942;48.936;8.260;2023-05-29T21:33:57;25.80;41.10
59162;DHT22;44942;48.936;8.260;2023-05-29T21:38:58;25.80;41.10
59162;DHT22;44942;48.936;8.260;2023-05-29T21:43:59;25.80;41.20
59162;DHT22;44942;48.936;8.260;2023-05-29T21:48:59;25.80;41.20
59162;DHT22;44942;48.936;8.260;2023-05-29T21:54:00;25.80;41.20
59162;DHT22;44942;48.936;8.260;2023-05-29T21:59:01;25.80;41.30
59162;DHT22;44942;48.936;8.260;2023-05-29T22:04:01;25.80;41.40
59162;DHT22;44942;48.936;8.260;2023-05-29T22:09:02;25.80;41.50
59162;DHT22;44942;48.936;8.260;2023-05-29T22:14:02;25.80;41.50
59162;DHT22;44942;48.936;8.260;2023-05-29T22:19:03;25.80;41.50
59162;DHT22;44942;48.936;8.260;2023-05-29T22:24:05;25.80;41.60
59162;DHT22;44942;48.936;8.260;2023-05-29T22:29:06;25.80;41.60
59162;DHT22;44942;48.936;8.260;2023-05-29T22:34:06;25.80;41.70
59162;DHT22;44942;48.936;8.260;2023-05-29T22:39:07;25.80;41.80
59162;DHT22;44942;48.936;8.260;2023-05-29T22:44:10;25.80;41.80
59162;DHT22;44942;48.936;8.260;2023-05-29T22:49:10;25.80;41.90
59162;DHT22;44942;48.936;8.260;2023-05-29T22:54:12;25.80;42.00
59162;DHT22;44942;48.936;8.260;2023-05-29T22:59:13;25.80;42.10
59162;DHT22;44942;48.936;8.260;2023-05-29T23:04:13;25.70;42.10
59162;DHT22;44942;48.936;8.260;2023-05-29T23:09:14;25.80;42.20
59162;DHT22;44942;48.936;8.260;2023-05-29T23:14:15;25.80;42.20
59162;DHT22;44942;48.936;8.260;2023-05-29T23:19:15;25.80;42.30
59162;DHT22;44942;48.936;8.260;2023-05-29T23:24:16;25.80;42.30
59162;DHT22;44942;48.936;8.260;2023-05-29T23:29:17;25.70;42.40
59162;DHT22;44942;48.936;8.260;2023-05-29T23:34:17;25.80;42.50
59162;DHT22;44942;48.936;8.260;2023-05-29T23:39:18;25.70;42.60
59162;DHT22;44942;48.936;8.260;2023-05-29T23:44:19;25.70;42.60
59162;DHT22;44942;48.936;8.260;2023-05-29T23:49:19;25.70;42.70
59162;DHT22;44942;48.936;8.260;2023-05-29T23:54:21;25.80;42.80
59162;DHT22;44942;48.936;8.260;2023-05-29T23:59:22;25.70;42.70
